• Join FlightAware (Why Join?)
  • Login
  • US Flag 
 
07:14AM EST


 

Airport Tracker/Info


-or-


 

Live Flight TrackerFlight Track Log ✈ EJA951 ✈ 16-Mar-2014 ✈ KPNE - KSUA

Flight Track Log - Related Links

Times and Time Zones

All times are in EDT time to prevent confusion due to time zone crossing. See the EJA951 flight status page for this flight to view local times or setup timezone preferences in your user account.

Time Position Orientation Groundspeed Altitude Reporting Facility
EDT Latitude Longitude Course Direction KTS MPH feet Rate Location/Type
03:38PM 40.1000 -74.9167 76° East 227 261 3,700  Level Philadelphia TRACON
03:39PM 40.0333 -74.9500 201° Southwest 271 312 7,000 2,940 Climbing Philadelphia TRACON
03:40PM 39.9833 -75.0000 217° Southwest 249 287 9,600 1,500 Climbing Philadelphia TRACON
03:41PM 39.9167 -75.0500 210° Southwest 253 291 10,000 180 Climbing Philadelphia TRACON
03:42PM 39.8667 -75.1167 226° Southwest 255 293 10,000 240 Level Philadelphia TRACON
03:43PM 39.8000 -75.1667 210° Southwest 242 278 10,600 540 Climbing Philadelphia TRACON
03:45PM 39.6567 -75.2519 205° Southwest 265 305 11,900 360 Climbing Washington Center
03:46PM 39.5589 -75.2819 193° South 326 375 11,900  Level Washington Center
03:47PM 39.4589 -75.3094 192° South 355 409 11,900 240 Level Washington Center
03:48PM 39.3675 -75.3367 193° South 372 428 12,500 780 Climbing Washington Center
03:49PM 39.2675 -75.3636 192° South 377 434 13,500 960 Climbing Washington Center
03:50PM 39.1653 -75.3881 191° South 377 434 14,500 960 Climbing Washington Center
03:51PM 39.0611 -75.4044 187° South 377 434 15,500 1,200 Climbing Washington Center
03:52PM 38.9589 -75.4208 187° South 377 434 17,000 1,380 Climbing Washington Center
03:53PM 38.8569 -75.4369 187° South 371 427 18,300 1,380 Climbing Washington Center
03:54PM 38.7528 -75.4506 186° South 371 427 19,800 1,440 Climbing Washington Center
03:55PM 38.6506 -75.4642 186° South 371 427 21,300 1,440 Climbing Washington Center
03:56PM 38.5483 -75.4828 188° South 371 427 22,800 1,440 Climbing Washington Center
03:57PM 38.4442 -75.4989 187° South 371 427 24,300 1,500 Climbing Washington Center
03:58PM 38.3419 -75.5150 187° South 371 427 25,800 1,500 Climbing Washington Center
03:59PM 38.2356 -75.5758 204° Southwest 371 427 27,300 1,200 Climbing Washington Center
04:00PM 38.1397 -75.6367 207° Southwest 376 433 28,300 840 Climbing Washington Center
04:01PM 38.0625 -75.6867 207° Southwest 381 438 29,100 960 Climbing Washington Center
04:02PM 37.9436 -75.7656 208° Southwest 391 450 30,300 960 Climbing Washington Center
04:03PM 37.8622 -75.8181 207° Southwest 401 461 31,100 1,320 Climbing Washington Center
04:04PM 37.7389 -75.8939 206° Southwest 408 470 33,000 1,800 Climbing Washington Center
04:05PM 37.6367 -75.9564 206° Southwest 408 470 34,700 1,620 Climbing Washington Center
04:06PM 37.5364 -76.0186 206° Southwest 408 470 36,300 1,620 Climbing Washington Center
04:07PM 37.4339 -76.0783 205° Southwest 403 464 38,000 1,620 Climbing Washington Center
04:08PM 37.3356 -76.1378 206° Southwest 397 457 39,500 1,080 Climbing Washington Center
04:09PM 37.2331 -76.1944 204° Southwest 402 463 40,200 600 Climbing Washington Center
04:10PM 37.1283 -76.2586 206° Southwest 402 463 40,800 540 Climbing Washington Center
04:11PM 37.0197 -76.3228 205° Southwest 413 475 41,300 480 Climbing Washington Center
04:12PM 36.9003 -76.3789 201° Southwest 434 499 41,800 540 Climbing Washington Center
04:13PM 36.7789 -76.4294 198° South 457 526 42,400 540 Climbing Washington Center
04:14PM 36.6703 -76.4828 201° Southwest 463 533 42,900 240 Climbing Washington Center
04:15PM 36.5467 -76.5331 198° South 468 539 43,000  Climbing Washington Center
04:16PM 36.4231 -76.5883 200° South 468 539 43,000  Level Washington Center
04:17PM 36.2933 -76.6408 198° South 479 551 43,000  Level Washington Center
04:18PM 36.1678 -76.6958 199° South 479 551 43,000  Level Washington Center
04:19PM 36.0400 -76.7506 199° South 484 557 43,000  Level Washington Center
04:20PM 35.9142 -76.8050 199° South 484 557 43,000  Level Washington Center
04:21PM 35.7842 -76.8594 199° South 484 557 43,000  Level Washington Center
04:22PM 35.6542 -76.9111 198° South 484 557 43,000  Level Washington Center
04:23PM 35.5139 -76.9725 200° South 484 557 43,000  Level Washington Center
04:24PM 35.3900 -77.0264 200° South 484 557 43,000  Level Washington Center
04:25PM 35.2581 -77.0825 199° South 489 563 43,000  Level Washington Center
04:26PM 35.1278 -77.1361 199° South 489 563 43,000  Level Washington Center
04:27PM 34.9978 -77.1894 199° South 489 563 43,000  Level Washington Center
04:28PM 34.8656 -77.2450 199° South 495 570 43,000  Level Washington Center
04:29PM 34.7375 -77.2981 199° South 495 570 43,000  Level Washington Center
04:30PM 34.6075 -77.3533 199° South 495 570 43,000  Level Washington Center
04:31PM 34.4753 -77.4083 199° South 495 570 43,000  Level Washington Center
04:32PM 34.3450 -77.4608 198° South 495 570 43,000  Level Washington Center
04:33PM 34.2128 -77.5133 198° South 500 575 43,000  Level Washington Center
04:34PM 34.0783 -77.5678 199° South 505 581 43,000  Level Washington Center
04:35PM 33.9658 -77.6119 198° South 519 597 43,000  Level Jacksonville Center
04:36PM 33.8347 -77.6675 199° South 519 597 43,000  Level Jacksonville Center
04:37PM 33.7033 -77.7225 199° South 508 585 43,000  Level Jacksonville Center
04:38PM 33.5594 -77.7783 198° South 502 578 43,000  Level Jacksonville Center
04:39PM 33.4300 -77.8281 198° South 495 570 43,000  Level Jacksonville Center
04:40PM 33.3008 -77.8828 200° South 495 570 43,000  Level Jacksonville Center
04:41PM 33.1692 -77.9322 197° South 495 570 43,000  Level Jacksonville Center
04:42PM 33.0400 -77.9864 199° South 495 570 43,000 -60 Level Jacksonville Center
04:43PM 32.9106 -78.0381 199° South 495 570 42,900  Descending Jacksonville Center
04:44PM 32.7808 -78.0872 198° South 495 570 43,000  Climbing Jacksonville Center
04:45PM 32.6514 -78.1383 198° South 495 570 43,000  Level Jacksonville Center
04:46PM 32.5217 -78.1894 198° South 495 570 43,000  Level Jacksonville Center
04:47PM 32.3942 -78.2403 199° South 495 570 43,000  Level Jacksonville Center
04:48PM 32.2750 -78.2883 199° South 490 564 43,000  Level Jacksonville Center
04:49PM 32.1492 -78.3364 198° South 495 570 43,000  Level Jacksonville Center
04:50PM 32.0219 -78.3917 200° South 495 570 43,000  Level Jacksonville Center
04:51PM 31.8942 -78.4442 199° South 490 564 43,000  Level Jacksonville Center
04:52PM 31.7625 -78.4994 200° South 495 570 43,000  Level Jacksonville Center
04:53PM 31.6350 -78.5519 199° South 495 570 43,000  Level Jacksonville Center
04:54PM 31.5053 -78.6042 199° South 495 570 43,000  Level Jacksonville Center
04:55PM 31.3756 -78.6564 199° South 495 570 43,000  Level Jacksonville Center
04:56PM 31.2458 -78.7108 200° South 495 570 43,000  Level Jacksonville Center
04:57PM 31.1181 -78.7625 199° South 495 570 43,000  Level Jacksonville Center
04:58PM 30.9781 -78.8219 200° South 493 567 43,000  Level Jacksonville Center
04:59PM 30.8419 -78.8714 197° South 496 571 43,000  Level Jacksonville Center
05:01PM 30.5961 -78.9756 200° South 496 571 43,000  Level Miami Center
05:02PM 30.4703 -79.0236 198° South 489 563 43,000  Level Miami Center
05:03PM 30.3236 -79.0736 196° South 489 563 43,000  Level Miami Center
05:04PM 30.1914 -79.1211 197° South 494 568 43,000  Level Miami Center
05:05PM 30.0594 -79.1664 197° South 494 568 43,000 -60 Level Miami Center
05:06PM 29.9294 -79.2161 198° South 499 574 42,900 -660 Descending Miami Center
05:07PM 29.8097 -79.2686 201° Southwest 491 565 41,700 -1,380 Descending Miami Center
05:08PM 29.6797 -79.3111 196° South 484 557 40,200 -1,500 Descending Miami Center
05:09PM 29.5456 -79.3486 194° South 484 557 38,700 -1,500 Descending Miami Center
05:10PM 29.4217 -79.3958 198° South 479 551 37,200 -1,500 Descending Miami Center
05:11PM 29.2936 -79.4428 198° South 490 564 35,700 -1,500 Descending Miami Center
05:12PM 29.1550 -79.4847 195° South 490 564 34,200 -1,560 Descending Miami Center
05:13PM 29.0269 -79.5339 199° South 501 577 32,600 -1,500 Descending Miami Center
05:14PM 28.8925 -79.5803 197° South 501 577 31,200 -1,500 Descending Miami Center
05:15PM 28.7581 -79.6244 196° South 501 577 29,600 -1,560 Descending Miami Center
05:16PM 28.6281 -79.6686 197° South 501 577 28,100 -1,500 Descending Miami Center
05:17PM 28.4956 -79.7122 196° South 501 577 26,600 -1,680 Descending Miami Center
05:18PM 28.3864 -79.7519 198° South 496 571 24,800 -2,220 Descending Miami Center
05:19PM 28.2664 -79.7914 196° South 471 542 22,200 -2,640 Descending Miami Center
05:20PM 28.1550 -79.8286 196° South 440 506 19,600 -2,700 Descending Miami Center
05:21PM 28.0478 -79.8658 197° South 417 480 16,900 -2,700 Descending Miami Center
05:22PM 27.9469 -79.8983 196° South 402 463 14,300 -2,520 Descending Miami Center
05:23PM 27.8503 -79.9333 198° South 353 406 11,900 -1,920 Descending Miami Center
05:24PM 27.7725 -79.9594 197° South 312 359 10,500 -1,500 Descending Miami Center
05:25PM 27.7094 -79.9811 197° South 275 316 8,900 -1,740 Descending Miami Center
05:26PM 27.6400 -80.0050 197° South 266 306 7,100 -1,920 Descending Miami Center
05:27PM 27.5642 -80.0311 197° South 266 306 5,100 -1,560 Descending Miami Center
05:28PM 27.4969 -80.0525 196° South 266 306 4,000 -600 Descending Miami Center
05:29PM 27.4339 -80.0719 195° South 259 298 4,000  Level Miami Center
05:30PM 27.3750 -80.0914 196° South 248 285 4,000 -300 Level Miami Center
05:31PM 27.3258 -80.1367 219° Southwest 241 277 3,500 -720 Descending Miami Center
05:32PM 27.2872 -80.1822 226° Southwest 204 235 2,600 -900 Descending Miami Center
05:33PM 27.2614 -80.2214 233° Southwest 174 200 1,700 -780 Descending Miami Center
05:34PM 27.2256 -80.2389 203° Southwest 135 155 900 -600 Descending Miami Center
05:35PM 27.1958 -80.2497 198° South 120 138 500 -420 Descending Miami Center